createdAt,value
2022-08-31T00:02:19.720Z,14.98
2022-08-31T00:04:51.635Z,15.02
2022-08-31T00:07:28.023Z,14.84
2022-08-31T00:09:59.429Z,14.90
2022-08-31T00:12:31.787Z,14.79
2022-08-31T00:15:03.867Z,14.91
2022-08-31T00:17:36.388Z,14.91
2022-08-31T00:20:21.631Z,14.80
2022-08-31T00:23:06.314Z,14.79
2022-08-31T00:25:39.227Z,14.79
2022-08-31T00:28:12.648Z,14.78
2022-08-31T00:30:59.880Z,14.65
2022-08-31T00:33:32.326Z,14.72
2022-08-31T00:36:05.047Z,14.69
2022-08-31T00:38:40.307Z,14.70
2022-08-31T00:41:14.336Z,14.63
2022-08-31T00:43:51.108Z,14.50
2022-08-31T00:46:26.470Z,14.40
2022-08-31T00:49:04.979Z,14.44
2022-08-31T00:51:41.512Z,14.46
2022-08-31T00:54:20.313Z,14.34
2022-08-31T00:56:52.276Z,14.30
2022-08-31T00:59:24.341Z,14.38
2022-08-31T01:01:57.080Z,14.28
2022-08-31T01:04:28.710Z,14.23
2022-08-31T01:07:01.035Z,14.09
2022-08-31T01:09:39.162Z,13.98
2022-08-31T01:12:15.775Z,14.17
2022-08-31T01:14:47.667Z,14.30
2022-08-31T01:17:19.220Z,14.07
2022-08-31T01:20:01.161Z,14.25
2022-08-31T01:22:40.509Z,14.45
2022-08-31T01:25:17.285Z,14.22
2022-08-31T01:27:49.062Z,14.11
2022-08-31T01:30:26.199Z,14.23
2022-08-31T01:33:19.149Z,14.21
2022-08-31T01:35:51.021Z,14.21
2022-08-31T01:38:21.830Z,14.36
2022-08-31T01:40:58.860Z,14.48
2022-08-31T01:43:29.990Z,14.46
2022-08-31T01:46:01.275Z,14.58
2022-08-31T01:48:33.027Z,14.69
2022-08-31T01:51:06.811Z,14.57
2022-08-31T01:53:38.337Z,14.67
2022-08-31T01:56:18.196Z,14.61
2022-08-31T01:58:49.476Z,14.57
2022-08-31T02:01:33.397Z,14.47
2022-08-31T02:04:08.197Z,14.43
2022-08-31T02:06:40.981Z,14.49
2022-08-31T02:09:13.064Z,14.68
2022-08-31T02:11:47.506Z,14.74
2022-08-31T02:14:18.812Z,14.50
2022-08-31T02:16:50.852Z,14.80
2022-08-31T02:19:22.430Z,14.77
2022-08-31T02:21:54.497Z,14.88
2022-08-31T02:24:25.929Z,14.97
2022-08-31T02:27:00.346Z,14.95
2022-08-31T02:29:32.283Z,14.97
2022-08-31T02:32:03.859Z,14.96
2022-08-31T02:34:35.481Z,14.81
2022-08-31T02:37:07.375Z,14.87
2022-08-31T02:39:42.531Z,14.96
2022-08-31T02:42:19.681Z,14.86
2022-08-31T02:44:50.989Z,14.92
2022-08-31T02:47:22.808Z,14.84
2022-08-31T02:49:54.204Z,14.93
2022-08-31T02:52:25.972Z,14.86
2022-08-31T02:54:57.503Z,14.82
2022-08-31T02:57:32.294Z,14.88
2022-08-31T03:00:03.771Z,14.70
2022-08-31T03:02:36.385Z,14.97
2022-08-31T03:05:10.694Z,14.71
2022-08-31T03:07:43.345Z,14.47
2022-08-31T03:10:17.244Z,14.52
2022-08-31T03:12:52.904Z,14.41
2022-08-31T03:15:27.500Z,14.65
2022-08-31T03:17:59.622Z,14.70
2022-08-31T03:20:32.021Z,14.56
2022-08-31T03:23:07.301Z,14.40
2022-08-31T03:25:40.008Z,14.53
2022-08-31T03:28:15.055Z,14.57
2022-08-31T03:30:46.654Z,14.53
2022-08-31T03:33:18.860Z,14.51
2022-08-31T03:35:50.432Z,14.67
2022-08-31T03:38:23.071Z,14.56
2022-08-31T03:40:54.580Z,14.53
2022-08-31T03:43:29.475Z,14.43
2022-08-31T03:46:01.371Z,14.51
2022-08-31T03:48:34.096Z,14.40
2022-08-31T03:51:05.994Z,14.48
2022-08-31T03:53:38.975Z,14.45
2022-08-31T03:56:11.057Z,14.44
2022-08-31T03:58:46.466Z,14.42
2022-08-31T04:01:18.569Z,14.09
2022-08-31T04:03:50.982Z,14.00
2022-08-31T04:06:23.157Z,14.13
2022-08-31T04:08:56.150Z,14.21
2022-08-31T04:11:45.181Z,14.24
2022-08-31T04:14:20.666Z,13.82
2022-08-31T04:16:52.797Z,13.99
2022-08-31T04:19:25.646Z,13.96
2022-08-31T04:21:57.606Z,14.08
2022-08-31T04:24:32.740Z,14.01
2022-08-31T04:27:04.326Z,13.81
2022-08-31T04:29:42.328Z,13.99
2022-08-31T04:32:17.745Z,13.85
2022-08-31T04:34:52.761Z,13.93
2022-08-31T04:37:30.158Z,13.95
2022-08-31T04:40:04.223Z,13.89
2022-08-31T04:42:39.365Z,13.89
2022-08-31T04:45:18.245Z,13.97
2022-08-31T04:47:50.509Z,13.97
2022-08-31T04:50:23.060Z,13.93
2022-08-31T04:53:03.655Z,13.91
2022-08-31T04:55:36.671Z,13.90
2022-08-31T04:58:08.781Z,13.98
2022-08-31T05:00:45.601Z,13.87
2022-08-31T05:03:17.771Z,13.82
2022-08-31T05:05:52.888Z,13.88
2022-08-31T05:08:24.819Z,13.83
2022-08-31T05:10:57.158Z,13.87
2022-08-31T05:13:28.920Z,13.79
2022-08-31T05:16:03.816Z,13.91
2022-08-31T05:18:36.518Z,14.11
2022-08-31T05:21:16.921Z,13.94
2022-08-31T05:23:50.981Z,14.21
2022-08-31T05:26:26.795Z,14.14
2022-08-31T05:28:59.129Z,14.22
2022-08-31T05:31:34.273Z,14.30
2022-08-31T05:34:06.227Z,14.43
2022-08-31T05:36:38.809Z,14.44
2022-08-31T05:39:12.224Z,14.47
2022-08-31T05:41:46.088Z,14.59
2022-08-31T05:44:21.308Z,14.50
2022-08-31T05:47:03.839Z,14.61
2022-08-31T05:49:36.400Z,14.31
2022-08-31T05:52:08.737Z,14.63
2022-08-31T05:54:43.559Z,14.67
2022-08-31T05:57:15.899Z,14.90
2022-08-31T05:59:47.270Z,14.99
2022-08-31T06:02:21.926Z,15.02
2022-08-31T06:04:53.447Z,15.14
2022-08-31T06:07:25.092Z,15.22
2022-08-31T06:09:56.239Z,15.07
2022-08-31T06:12:28.608Z,15.26
2022-08-31T06:15:00.031Z,15.49
2022-08-31T06:17:35.521Z,15.60
2022-08-31T06:20:08.332Z,15.82
2022-08-31T06:22:43.646Z,16.10
2022-08-31T06:25:19.754Z,16.20
2022-08-31T06:27:51.846Z,16.30
2022-08-31T06:30:27.656Z,16.68
2022-08-31T06:33:02.136Z,17.36
2022-08-31T06:35:33.711Z,17.80
2022-08-31T06:38:05.497Z,18.75
2022-08-31T06:40:37.125Z,19.46
2022-08-31T06:43:09.272Z,20.13
2022-08-31T06:45:40.698Z,20.70
2022-08-31T06:48:15.354Z,21.32
2022-08-31T06:50:46.869Z,21.81
2022-08-31T06:53:19.103Z,22.28
2022-08-31T06:55:50.826Z,22.96
2022-08-31T06:58:22.708Z,22.86
2022-08-31T07:00:54.532Z,23.00
2022-08-31T07:03:33.636Z,23.45
2022-08-31T07:06:10.127Z,23.56
2022-08-31T07:08:44.815Z,23.89
2022-08-31T07:11:19.406Z,24.17
2022-08-31T07:13:52.102Z,24.69
2022-08-31T07:16:26.191Z,24.41
2022-08-31T07:19:03.968Z,24.98
2022-08-31T07:21:38.661Z,24.53
2022-08-31T07:24:11.789Z,25.28
2022-08-31T07:26:46.888Z,25.16
2022-08-31T07:29:21.810Z,25.11
2022-08-31T07:31:56.695Z,25.33
2022-08-31T07:34:34.435Z,24.85
2022-08-31T07:37:20.282Z,24.76
2022-08-31T07:40:08.355Z,23.52
2022-08-31T07:42:48.427Z,23.66
2022-08-31T07:45:30.665Z,23.34
2022-08-31T07:48:06.758Z,23.29
2022-08-31T07:50:45.241Z,22.61
2022-08-31T07:53:18.311Z,22.74
2022-08-31T07:55:52.258Z,22.18
2022-08-31T07:58:28.559Z,22.58
2022-08-31T08:01:04.677Z,22.48
2022-08-31T08:03:37.103Z,22.46
2022-08-31T08:06:15.716Z,22.05
2022-08-31T08:09:01.741Z,22.08
2022-08-31T08:11:46.425Z,22.05
2022-08-31T08:14:17.876Z,22.02
2022-08-31T08:16:52.503Z,22.11
2022-08-31T08:19:25.704Z,21.93
2022-08-31T08:22:00.737Z,21.99
2022-08-31T08:24:35.075Z,22.55
2022-08-31T08:27:07.726Z,22.57
2022-08-31T08:29:39.858Z,23.35
2022-08-31T08:32:17.484Z,23.32
2022-08-31T08:34:49.695Z,24.02
2022-08-31T08:37:47.446Z,25.11
2022-08-31T08:40:27.367Z,25.59
2022-08-31T08:43:00.335Z,26.17
2022-08-31T08:45:35.210Z,26.17
2022-08-31T08:48:12.522Z,26.20
2022-08-31T08:50:45.344Z,26.41
2022-08-31T08:53:21.663Z,26.57
2022-08-31T08:55:54.110Z,26.47
2022-08-31T08:58:27.229Z,27.03
2022-08-31T09:00:59.397Z,27.11
2022-08-31T09:03:44.740Z,27.16
2022-08-31T09:06:24.284Z,26.67
2022-08-31T09:09:18.763Z,25.63
2022-08-31T09:12:05.433Z,26.71
2022-08-31T09:14:57.407Z,26.68
2022-08-31T09:17:47.789Z,27.24
2022-08-31T09:20:25.151Z,25.92
2022-08-31T09:23:01.320Z,26.48
2022-08-31T09:25:52.808Z,26.36
2022-08-31T09:28:44.267Z,26.28
2022-08-31T09:31:37.539Z,26.03
2022-08-31T09:34:14.422Z,25.71
2022-08-31T09:36:47.276Z,26.33
2022-08-31T09:39:25.931Z,26.32
2022-08-31T09:42:15.659Z,26.33
2022-08-31T09:44:53.131Z,26.47
2022-08-31T09:47:52.679Z,25.98
2022-08-31T09:50:38.041Z,25.19
2022-08-31T09:53:31.131Z,25.07
2022-08-31T09:56:20.343Z,24.66
2022-08-31T09:58:59.717Z,24.79
2022-08-31T10:01:39.201Z,24.83
2022-08-31T10:04:20.282Z,25.60
2022-08-31T10:07:02.124Z,25.98
2022-08-31T10:09:38.745Z,25.63
2022-08-31T10:12:17.532Z,26.28
2022-08-31T10:15:02.838Z,25.49
2022-08-31T10:17:39.526Z,25.89
2022-08-31T10:20:18.946Z,25.40
2022-08-31T10:22:54.343Z,26.03
2022-08-31T10:25:34.591Z,25.81
2022-08-31T10:28:15.743Z,25.83
2022-08-31T10:31:00.960Z,25.10
2022-08-31T10:33:52.490Z,24.17
2022-08-31T10:36:33.605Z,25.04
2022-08-31T10:39:19.984Z,25.07
2022-08-31T10:41:53.163Z,24.77
2022-08-31T10:44:37.024Z,24.52
2022-08-31T10:47:14.257Z,24.93
2022-08-31T10:50:06.102Z,24.41
2022-08-31T10:52:46.467Z,23.22
2022-08-31T10:55:31.078Z,23.57
2022-08-31T10:58:14.111Z,24.20
2022-08-31T11:00:53.767Z,24.43
2022-08-31T11:03:52.052Z,24.05
2022-08-31T11:06:34.558Z,23.90
2022-08-31T11:09:12.963Z,23.99
2022-08-31T11:11:52.170Z,23.81
2022-08-31T11:14:45.622Z,23.89
2022-08-31T11:17:51.349Z,24.05
2022-08-31T11:20:41.310Z,24.40
2022-08-31T11:23:48.370Z,24.64
2022-08-31T11:26:51.312Z,24.57
2022-08-31T11:29:35.904Z,23.26
2022-08-31T11:32:15.430Z,23.64
2022-08-31T11:34:53.930Z,23.09
2022-08-31T11:37:58.351Z,23.29
2022-08-31T11:41:14.449Z,23.00
2022-08-31T11:43:54.590Z,23.09
2022-08-31T11:46:53.605Z,22.98
2022-08-31T11:49:46.987Z,23.13
2022-08-31T11:52:36.034Z,22.91
2022-08-31T11:55:22.579Z,23.04
2022-08-31T11:58:21.433Z,22.85
2022-08-31T12:00:59.745Z,22.41
2022-08-31T12:03:53.611Z,21.94
2022-08-31T12:07:11.478Z,22.34
2022-08-31T12:10:15.951Z,22.64
2022-08-31T12:13:23.639Z,22.62
2022-08-31T12:16:15.300Z,23.15
2022-08-31T12:19:00.009Z,22.78
2022-08-31T12:21:57.151Z,22.87
2022-08-31T12:24:49.177Z,22.72
2022-08-31T12:27:34.638Z,22.53
2022-08-31T12:30:23.357Z,22.73
2022-08-31T12:33:02.650Z,22.82
2022-08-31T12:35:36.568Z,22.41
2022-08-31T12:38:10.771Z,22.55
2022-08-31T12:40:47.970Z,22.70
2022-08-31T12:43:24.130Z,22.70
2022-08-31T12:46:22.656Z,22.68
2022-08-31T12:49:08.862Z,22.34
2022-08-31T12:51:48.851Z,22.59
2022-08-31T12:54:38.451Z,22.81
2022-08-31T12:57:18.590Z,22.88
2022-08-31T13:00:11.759Z,22.94
2022-08-31T13:02:51.684Z,23.07
2022-08-31T13:05:26.724Z,23.01
2022-08-31T13:08:00.248Z,22.94
2022-08-31T13:10:35.664Z,22.53
2022-08-31T13:13:11.229Z,22.52
2022-08-31T13:15:46.147Z,22.68
2022-08-31T13:18:26.699Z,22.09
2022-08-31T13:21:06.108Z,22.21
2022-08-31T13:23:41.302Z,22.28
2022-08-31T13:26:20.263Z,22.57
2022-08-31T13:28:55.904Z,22.48
2022-08-31T13:31:30.069Z,22.42
2022-08-31T13:34:07.843Z,22.40
2022-08-31T13:36:45.671Z,22.25
2022-08-31T13:39:28.948Z,22.29
2022-08-31T13:42:09.891Z,22.38
2022-08-31T13:44:47.344Z,22.43
2022-08-31T13:47:26.348Z,22.53
2022-08-31T13:50:09.184Z,22.42
2022-08-31T13:53:09.942Z,22.55
2022-08-31T13:55:49.243Z,22.70
2022-08-31T13:58:32.337Z,22.46
2022-08-31T14:01:23.757Z,22.55
2022-08-31T14:03:59.369Z,22.65
2022-08-31T14:06:39.727Z,22.67
2022-08-31T14:09:20.998Z,22.69
2022-08-31T14:12:04.851Z,22.52
2022-08-31T14:14:44.985Z,22.48
2022-08-31T14:17:19.197Z,22.60
2022-08-31T14:19:53.733Z,22.53
2022-08-31T14:22:35.106Z,22.24
2022-08-31T14:25:07.207Z,21.93
2022-08-31T14:27:43.335Z,21.75
2022-08-31T14:30:15.744Z,21.95
2022-08-31T14:32:47.833Z,22.21
2022-08-31T14:35:19.132Z,21.67
2022-08-31T14:37:53.936Z,21.93
2022-08-31T14:40:29.117Z,21.66
2022-08-31T14:43:01.353Z,21.89
2022-08-31T14:45:33.114Z,22.02
2022-08-31T14:48:12.440Z,22.01
2022-08-31T14:50:44.007Z,22.21
2022-08-31T14:53:19.335Z,22.22
2022-08-31T14:55:50.658Z,21.83
2022-08-31T14:58:24.416Z,21.90
2022-08-31T15:00:55.831Z,21.87
2022-08-31T15:03:34.321Z,21.52
2022-08-31T15:06:05.889Z,21.85
2022-08-31T15:08:42.693Z,22.16
2022-08-31T15:11:14.051Z,21.94
2022-08-31T15:13:47.729Z,22.20
2022-08-31T15:16:19.011Z,22.00
2022-08-31T15:18:54.828Z,22.05
2022-08-31T15:21:26.983Z,22.12
2022-08-31T15:24:01.298Z,22.03
2022-08-31T15:26:32.721Z,22.09
2022-08-31T15:29:04.810Z,22.27
2022-08-31T15:31:36.164Z,22.40
2022-08-31T15:34:10.182Z,22.64
2022-08-31T15:36:41.903Z,22.24
2022-08-31T15:39:17.136Z,22.27
2022-08-31T15:41:50.324Z,22.28
2022-08-31T15:44:22.871Z,21.90
2022-08-31T15:47:09.746Z,21.91
2022-08-31T15:49:44.900Z,22.27
2022-08-31T15:52:16.274Z,22.18
2022-08-31T15:54:51.184Z,22.24
2022-08-31T15:57:23.876Z,22.19
2022-08-31T15:59:55.504Z,22.18
2022-08-31T16:02:28.042Z,22.01
2022-08-31T16:04:59.768Z,21.81
2022-08-31T16:07:31.983Z,21.55
2022-08-31T16:10:16.719Z,21.65
2022-08-31T16:12:51.727Z,21.68
2022-08-31T16:15:25.057Z,21.59
2022-08-31T16:18:03.649Z,21.63
2022-08-31T16:20:36.453Z,21.75
2022-08-31T16:23:07.949Z,21.59
2022-08-31T16:25:48.188Z,21.45
2022-08-31T16:28:22.562Z,21.37
2022-08-31T16:30:55.003Z,21.48
2022-08-31T16:33:26.398Z,21.45
2022-08-31T16:35:58.551Z,21.38
2022-08-31T16:38:31.452Z,21.42
2022-08-31T16:41:08.127Z,21.09
2022-08-31T16:43:39.691Z,21.13
2022-08-31T16:46:39.232Z,20.85
2022-08-31T16:49:18.584Z,21.04
2022-08-31T16:51:50.899Z,20.99
2022-08-31T16:54:22.609Z,20.78
2022-08-31T16:57:00.474Z,20.81
2022-08-31T16:59:33.883Z,20.71
2022-08-31T17:02:06.462Z,20.61
2022-08-31T17:04:54.331Z,20.62
2022-08-31T17:07:29.357Z,20.38
2022-08-31T17:10:07.421Z,20.33
2022-08-31T17:12:43.531Z,20.07
2022-08-31T17:15:15.194Z,19.93
2022-08-31T17:17:48.979Z,20.10
2022-08-31T17:20:20.716Z,19.81
2022-08-31T17:22:52.740Z,19.96
2022-08-31T17:25:24.415Z,20.11
2022-08-31T17:28:01.743Z,19.84
2022-08-31T17:30:36.265Z,19.65
2022-08-31T17:33:13.110Z,19.52
2022-08-31T17:35:47.839Z,19.68
2022-08-31T17:38:20.046Z,19.56
2022-08-31T17:40:55.924Z,19.65
2022-08-31T17:43:31.211Z,19.51
2022-08-31T17:46:06.378Z,19.63
2022-08-31T17:48:38.851Z,19.30
2022-08-31T17:51:12.967Z,19.36
2022-08-31T17:53:48.299Z,19.30
2022-08-31T17:56:24.473Z,19.14
2022-08-31T17:59:00.113Z,19.25
2022-08-31T18:01:36.026Z,19.19
2022-08-31T18:04:08.623Z,19.09
2022-08-31T18:06:46.346Z,19.13
2022-08-31T18:09:21.059Z,19.05
2022-08-31T18:11:55.884Z,19.07
2022-08-31T18:14:34.626Z,19.11
2022-08-31T18:17:10.798Z,19.06
2022-08-31T18:19:43.772Z,18.76
2022-08-31T18:22:16.146Z,18.84
2022-08-31T18:24:48.038Z,18.86
2022-08-31T18:27:19.385Z,18.76
2022-08-31T18:29:56.776Z,18.83
2022-08-31T18:32:29.199Z,18.72
2022-08-31T18:35:01.340Z,18.78
2022-08-31T18:37:33.045Z,18.56
2022-08-31T18:40:22.022Z,18.49
2022-08-31T18:43:05.460Z,18.43
2022-08-31T18:45:40.000Z,18.42
2022-08-31T18:48:24.920Z,18.49
2022-08-31T18:51:03.553Z,18.40
2022-08-31T18:53:38.309Z,18.31
2022-08-31T18:56:12.921Z,18.34
2022-08-31T18:58:44.864Z,18.32
2022-08-31T19:01:21.230Z,18.20
2022-08-31T19:03:53.562Z,18.29
2022-08-31T19:06:29.662Z,18.33
2022-08-31T19:09:05.201Z,17.94
2022-08-31T19:11:42.562Z,18.03
2022-08-31T19:14:15.202Z,18.03
2022-08-31T19:16:55.096Z,17.93
2022-08-31T19:19:34.675Z,17.89
2022-08-31T19:22:07.144Z,17.93
2022-08-31T19:24:40.845Z,17.95
2022-08-31T19:27:14.202Z,17.85
2022-08-31T19:29:46.082Z,17.87
2022-08-31T19:32:21.604Z,17.77
2022-08-31T19:34:53.682Z,17.86
2022-08-31T19:37:26.462Z,17.83
2022-08-31T19:39:58.481Z,17.80
2022-08-31T19:45:23.659Z,17.61
2022-08-31T19:48:01.629Z,17.72
2022-08-31T19:50:33.955Z,17.51
2022-08-31T19:53:06.382Z,17.53
2022-08-31T19:55:38.322Z,17.53
2022-08-31T19:58:10.542Z,17.57
2022-08-31T20:00:43.422Z,17.50
2022-08-31T20:03:19.744Z,17.44
2022-08-31T20:05:51.872Z,17.42
2022-08-31T20:08:24.462Z,17.46
2022-08-31T20:10:56.590Z,17.36
2022-08-31T20:13:29.222Z,17.27
2022-08-31T20:16:01.403Z,17.27
2022-08-31T20:18:37.606Z,17.33
2022-08-31T20:21:17.891Z,17.26
2022-08-31T20:23:51.703Z,17.16
2022-08-31T20:26:26.173Z,17.23
2022-08-31T20:29:10.308Z,17.04
2022-08-31T20:31:45.053Z,17.00
2022-08-31T20:34:22.302Z,16.98
2022-08-31T20:37:00.485Z,16.96
2022-08-31T20:39:35.733Z,16.97
2022-08-31T20:42:08.362Z,17.07
2022-08-31T20:44:41.543Z,16.98
2022-08-31T20:47:26.646Z,16.96
2022-08-31T20:50:03.727Z,16.86
2022-08-31T20:52:39.622Z,16.80
2022-08-31T20:55:14.622Z,16.81
2022-08-31T20:57:47.243Z,16.70
2022-08-31T21:00:20.082Z,16.85
2022-08-31T21:02:53.106Z,16.83
2022-08-31T21:05:39.101Z,16.79
2022-08-31T21:08:11.122Z,16.66
2022-08-31T21:10:43.502Z,16.67
2022-08-31T21:13:17.162Z,16.71
2022-08-31T21:15:50.911Z,16.58
2022-08-31T21:18:23.543Z,16.58
2022-08-31T21:21:01.151Z,16.68
2022-08-31T21:23:33.603Z,16.51
2022-08-31T21:26:08.962Z,16.48
2022-08-31T21:28:41.170Z,16.51
2022-08-31T21:31:27.483Z,16.61
2022-08-31T21:34:04.127Z,16.54
2022-08-31T21:36:40.247Z,16.61
2022-08-31T21:39:15.108Z,16.53
2022-08-31T21:41:48.327Z,16.58
2022-08-31T21:44:40.147Z,16.50
2022-08-31T21:47:15.455Z,16.45
2022-08-31T21:49:50.408Z,16.41
2022-08-31T21:52:25.448Z,16.51
2022-08-31T21:54:59.668Z,16.44
2022-08-31T21:57:31.827Z,16.45
2022-08-31T22:00:04.507Z,16.49
2022-08-31T22:02:36.813Z,16.32
2022-08-31T22:05:13.250Z,16.46
2022-08-31T22:07:49.647Z,16.28
2022-08-31T22:10:23.567Z,16.48
2022-08-31T22:12:55.628Z,16.55
2022-08-31T22:15:28.590Z,16.52
2022-08-31T22:18:35.240Z,16.51
2022-08-31T22:20:53.029Z,16.57
2022-08-31T22:23:28.146Z,16.61
2022-08-31T22:26:00.347Z,16.73
2022-08-31T22:28:33.048Z,16.76
2022-08-31T22:31:09.185Z,16.72
2022-08-31T22:33:47.233Z,16.79
2022-08-31T22:36:30.979Z,16.76
2022-08-31T22:39:09.891Z,16.86
2022-08-31T22:41:43.908Z,16.89
2022-08-31T22:44:21.230Z,16.95
2022-08-31T22:46:53.909Z,16.82
2022-08-31T22:49:27.370Z,16.72
2022-08-31T22:51:59.647Z,16.68
2022-08-31T22:54:35.467Z,16.80
2022-08-31T22:57:09.206Z,16.74
2022-08-31T22:59:42.826Z,16.86
2022-08-31T23:02:14.595Z,16.79
2022-08-31T23:04:46.775Z,16.55
2022-08-31T23:07:18.462Z,16.55
2022-08-31T23:09:53.278Z,16.60
2022-08-31T23:12:25.138Z,16.65
2022-08-31T23:14:57.439Z,16.26
2022-08-31T23:17:29.058Z,16.16
2022-08-31T23:20:02.278Z,16.28
2022-08-31T23:22:34.365Z,16.22
2022-08-31T23:25:10.897Z,16.35
2022-08-31T23:27:42.458Z,16.35
2022-08-31T23:30:19.088Z,16.36
2022-08-31T23:32:50.998Z,16.43
2022-08-31T23:35:24.868Z,16.30
2022-08-31T23:37:56.758Z,16.30
2022-08-31T23:40:32.992Z,16.20
2022-08-31T23:43:05.067Z,16.23
2022-08-31T23:45:38.348Z,16.30
2022-08-31T23:48:10.108Z,16.17
2022-08-31T23:50:42.917Z,16.21
2022-08-31T23:53:15.198Z,16.25
2022-08-31T23:55:51.717Z,16.16
2022-08-31T23:58:23.409Z,16.28
